Time;durP1;ratioP1;P1;durP2;ratioP2;P2;SDS_P1;SDS_P2;PMS_P1;PMS_P2;Temp;Humidity;BMP_temperature;BMP_pressure;BME280_temperature;BME280_humidity;BME280_pressure;Samples;Min_cycle;Max_cycle;Signal;HPM_P1;HPM_P2
2021/12/10 00:00:52;;;;;;;7.15;5.78;;;;;;;0.86;78.77;97985.31;5105547;28;20048;-66
2021/12/10 00:03:28;;;;;;;7.72;5.95;;;;;;;0.87;78.91;97975.72;5105213;28;20040;-65
2021/12/10 00:06:05;;;;;;;7.60;5.55;;;;;;;0.88;78.77;97987.88;5106746;28;20059;-66
2021/12/10 00:08:43;;;;;;;7.32;5.60;;;;;;;0.88;78.75;97982.66;5109337;28;20322;-65
2021/12/10 00:11:18;;;;;;;7.65;6.15;;;;;;;0.42;78.62;97908.75;5109252;28;20055;-66
2021/12/10 00:13:51;;;;;;;7.90;6.10;;;;;;;0.88;78.76;97980.88;5108801;28;20056;-68
2021/12/10 00:16:25;;;;;;;6.82;5.45;;;;;;;0.86;78.89;97976.63;5109112;28;20059;-66
2021/12/10 00:19:11;;;;;;;7.13;5.88;;;;;;;0.83;78.92;97981.97;5109124;28;20292;-66
2021/12/10 00:21:44;;;;;;;8.68;6.03;;;;;;;0.84;78.83;97979.31;5109071;28;20066;-66
2021/12/10 00:24:17;;;;;;;7.82;6.80;;;;;;;0.83;79.00;97975.00;5108761;28;20051;-65
2021/12/10 00:26:49;;;;;;;6.28;5.18;;;;;;;0.83;79.01;97977.59;5109027;28;20040;-66
2021/12/10 00:29:22;;;;;;;9.13;6.88;;;;;;;0.84;78.89;97986.28;5108864;28;20044;-66
2021/12/10 00:32:01;;;;;;;6.63;4.97;;;;;;;0.83;78.67;97981.97;5108648;28;20040;-66
2021/12/10 00:34:32;;;;;;;6.95;5.15;;;;;;;0.81;78.80;97984.63;5108257;28;20058;-65
2021/12/10 00:37:09;;;;;;;5.95;4.90;;;;;;;-0.41;78.68;97796.34;5108809;28;20204;-66
2021/12/10 00:39:45;;;;;;;7.65;6.00;;;;;;;0.81;78.90;97994.22;5108659;28;20044;-65
2021/12/10 00:42:21;;;;;;;6.10;5.47;;;;;;;0.83;78.69;97998.47;5108725;28;20048;-66
2021/12/10 00:44:54;;;;;;;5.22;4.70;;;;;;;0.85;78.61;97993.19;5108688;28;20040;-66
2021/12/10 00:47:29;;;;;;;8.60;5.88;;;;;;;0.83;78.72;97989.78;5108546;28;20059;-66
2021/12/10 00:50:01;;;;;;;;;;;;;;;0.79;78.89;97996.03;5108792;28;20040;-66
2021/12/10 00:52:33;;;;;;;4.78;4.22;;;;;;;0.80;78.92;97993.38;5108458;28;19916;-66
2021/12/10 00:55:07;;;;;;;5.22;4.28;;;;;;;0.80;78.83;97979.47;5108495;28;20052;-66
2021/12/10 00:57:40;;;;;;;5.25;4.72;;;;;;;-0.23;78.72;97792.22;5108435;28;20048;-66
2021/12/10 01:00:18;;;;;;;4.90;4.22;;;;;;;0.81;78.73;97968.13;5108224;28;20048;-66
2021/12/10 01:02:52;;;;;;;5.75;4.50;;;;;;;0.81;78.81;97974.19;5108236;28;20059;-66
2021/12/10 01:05:25;;;;;;;6.72;5.75;;;;;;;0.55;79.07;97937.84;5108281;28;20048;-66
2021/12/10 01:07:58;;;;;;;6.78;5.30;;;;;;;0.76;79.09;97973.53;5108166;28;20048;-66
2021/12/10 01:10:45;;;;;;;6.78;5.43;;;;;;;0.74;78.97;97966.66;5108108;28;20044;-68
2021/12/10 01:13:25;;;;;;;7.18;5.20;;;;;;;0.49;79.05;97927.63;5107685;28;20060;-66
2021/12/10 01:16:15;;;;;;;6.65;5.15;;;;;;;0.75;78.94;97961.41;5108018;28;20059;-65
2021/12/10 01:24:49;;;;;;;5.40;4.60;;;;;;;0.77;78.73;97971.78;5107873;28;20055;-66
2021/12/10 01:27:31;;;;;;;6.55;4.45;;;;;;;0.80;78.70;97974.25;5107830;28;20048;-66
2021/12/10 01:30:10;;;;;;;5.90;4.75;;;;;;;0.55;78.51;97937.84;5107758;28;20044;-66
2021/12/10 01:32:46;;;;;;;5.95;4.43;;;;;;;0.78;78.45;97978.69;5107759;28;20048;-66
2021/12/10 01:35:28;;;;;;;5.03;4.43;;;;;;;0.77;78.57;97987.41;5107548;28;20058;-66
2021/12/10 01:38:02;;;;;;;6.00;4.70;;;;;;;0.76;78.35;97978.75;5107663;28;20063;-66
2021/12/10 01:40:36;;;;;;;5.90;5.25;;;;;;;0.79;78.45;97973.41;5107472;28;20052;-66
2021/12/10 01:43:21;;;;;;;7.67;4.70;;;;;;;-0.70;78.34;97742.75;5107521;28;20063;-66
2021/12/10 01:46:01;;;;;;;5.63;4.43;;;;;;;0.76;78.40;97973.53;5107537;28;20047;-66
2021/12/10 01:48:38;;;;;;;4.85;4.13;;;;;;;0.78;78.43;97973.47;5107670;28;20299;-66
2021/12/10 01:51:14;;;;;;;5.88;4.90;;;;;;;0.76;78.38;97965.72;5107131;28;20212;-66
2021/12/10 01:53:49;;;;;;;6.28;5.35;;;;;;;0.76;78.29;97970.06;5107320;28;20047;-66
2021/12/10 01:56:27;;;;;;;5.90;4.55;;;;;;;0.75;78.31;97960.56;5107222;28;20241;-66
2021/12/10 01:59:02;;;;;;;5.80;4.88;;;;;;;0.75;78.23;97957.94;5107109;28;20052;-66
2021/12/10 02:01:40;;;;;;;5.47;4.60;;;;;;;0.73;78.30;97944.97;5107136;28;20047;-65
2021/12/10 02:04:17;;;;;;;8.18;6.10;;;;;;;0.73;78.30;97946.72;5106844;28;20044;-66
2021/12/10 02:06:53;;;;;;;5.88;4.50;;;;;;;0.27;78.27;97919.75;5107094;28;20284;-66
2021/12/10 02:09:25;;;;;;;5.78;5.18;;;;;;;0.75;78.44;97945.75;5106720;28;20047;-66
2021/12/10 02:11:55;;;;;;;5.68;4.60;;;;;;;0.73;78.28;97939.75;5106949;28;20047;-66
2021/12/10 02:14:25;;;;;;;6.53;5.05;;;;;;;0.75;78.36;97945.75;5106467;28;20059;-67
2021/12/10 02:16:58;;;;;;;5.75;5.00;;;;;;;0.76;78.44;97944.84;5106786;28;20056;-66
2021/12/10 02:19:31;;;;;;;5.10;4.00;;;;;;;0.77;78.35;97946.53;5106586;28;20048;-65
2021/12/10 02:22:03;;;;;;;6.18;4.57;;;;;;;0.52;78.26;97902.31;5107072;28;20040;-66
2021/12/10 02:24:30;;;;;;;6.35;4.43;;;;;;;0.78;78.23;97943.03;5106545;28;20164;-66
2021/12/10 02:27:04;;;;;;;8.57;5.00;;;;;;;0.79;78.22;97949.09;5106726;28;20047;-66
2021/12/10 02:29:40;;;;;;;6.03;5.07;;;;;;;0.78;78.33;97939.56;5105988;28;20044;-66
2021/12/10 02:32:13;;;;;;;5.95;4.55;;;;;;;0.73;78.54;97939.75;5106591;28;20189;-66
2021/12/10 02:34:49;;;;;;;5.50;4.53;;;;;;;0.76;78.63;97949.22;5105828;28;20047;-66
2021/12/10 02:37:23;;;;;;;6.20;4.53;;;;;;;0.78;78.35;97943.03;5105762;28;20059;-66
2021/12/10 02:39:55;;;;;;;5.53;4.97;;;;;;;0.80;78.35;97943.81;5106150;28;20185;-66
2021/12/10 02:42:27;;;;;;;6.15;4.65;;;;;;;0.80;78.43;97948.19;5106426;28;20382;-66
2021/12/10 02:45:00;;;;;;;7.43;5.05;;;;;;;0.78;78.44;98009.97;5106408;28;20059;-66
2021/12/10 02:47:32;;;;;;;6.53;4.82;;;;;;;0.78;78.60;97943.03;5106364;28;20040;-66
2021/12/10 02:50:08;;;;;;;5.70;5.15;;;;;;;0.81;78.44;97935.09;5106294;28;20044;-66
2021/12/10 02:52:42;;;;;;;6.22;4.88;;;;;;;0.80;78.56;97942.97;5106284;28;20048;-66
2021/12/10 02:55:15;;;;;;;6.70;5.50;;;;;;;0.80;78.57;97938.59;5106222;28;20084;-66
2021/12/10 02:57:50;;;;;;;6.45;5.10;;;;;;;0.83;78.37;97928.06;5106234;28;20047;-66
2021/12/10 03:00:28;;;;;;;5.63;4.88;;;;;;;0.83;78.44;97932.41;5106131;28;20044;-66
2021/12/10 03:03:00;;;;;;;9.80;5.40;;;;;;;0.86;78.27;97933.16;5106128;28;20047;-66
2021/12/10 03:05:33;;;;;;;9.88;5.22;;;;;;;0.83;78.37;97941.09;5105772;28;20206;-66
2021/12/10 03:08:07;;;;;;;5.72;4.97;;;;;;;0.08;78.23;97801.50;5106052;28;20040;-65
2021/12/10 03:10:40;;;;;;;6.68;5.07;;;;;;;0.83;78.29;97927.19;5106076;28;20043;-67
2021/12/10 03:13:13;;;;;;;7.97;5.22;;;;;;;0.84;78.30;97927.13;5105618;28;20052;-66
2021/12/10 03:15:46;;;;;;;6.40;5.30;;;;;;;0.84;78.13;97921.06;5105950;28;20059;-67
2021/12/10 03:18:18;;;;;;;5.70;4.95;;;;;;;0.84;78.04;97921.94;5105963;28;20306;-67
2021/12/10 03:20:51;;;;;;;5.65;4.68;;;;;;;0.83;78.12;97929.81;5105860;28;20036;-67
2021/12/10 03:23:25;;;;;;;5.97;5.00;;;;;;;0.82;77.93;97926.34;5105883;28;20048;-66
2021/12/10 03:25:57;;;;;;;5.80;5.03;;;;;;;0.85;77.99;97930.59;5105853;28;20074;-66
2021/12/10 03:28:29;;;;;;;8.23;5.05;;;;;;;0.84;78.10;97923.69;5105892;28;20059;-66
2021/12/10 03:31:01;;;;;;;5.85;4.70;;;;;;;0.82;78.04;97975.91;5105836;28;20292;-66
2021/12/10 03:33:35;;;;;;;6.13;5.05;;;;;;;0.84;77.79;97921.94;5105664;28;20044;-66
2021/12/10 03:36:08;;;;;;;6.70;4.40;;;;;;;0.84;77.78;97916.72;5104658;28;20047;-66
2021/12/10 03:38:42;;;;;;;7.05;4.53;;;;;;;0.83;77.94;97915.00;5105714;28;20040;-66
2021/12/10 03:41:15;;;;;;;5.28;4.57;;;;;;;-0.26;77.77;97736.81;5109170;28;20066;-66
2021/12/10 03:43:49;;;;;;;5.70;4.55;;;;;;;0.81;77.94;97910.75;5109826;28;20170;-66
2021/12/10 03:46:24;;;;;;;5.05;4.00;;;;;;;0.82;77.91;97913.31;5109725;28;20047;-66
2021/12/10 03:48:56;;;;;;;5.75;4.40;;;;;;;0.82;77.91;97908.09;5109727;28;20059;-66
2021/12/10 03:51:28;;;;;;;7.13;4.50;;;;;;;0.82;77.85;97915.91;5109708;28;20051;-66
2021/12/10 03:54:04;;;;;;;6.72;4.88;;;;;;;0.81;77.71;97906.41;5109659;28;20040;-66
2021/12/10 03:56:38;;;;;;;6.90;5.20;;;;;;;0.80;77.83;97899.47;5109613;28;20300;-66
2021/12/10 03:59:13;;;;;;;5.00;3.70;;;;;;;0.78;77.85;97901.28;5109554;28;20058;-65
2021/12/10 04:01:51;;;;;;;5.72;4.30;;;;;;;0.79;77.70;97897.78;5109431;28;20044;-65
2021/12/10 04:04:27;;;;;;;6.43;5.32;;;;;;;0.77;77.72;97886.56;5109416;28;20047;-65
2021/12/10 04:07:00;;;;;;;6.88;4.00;;;;;;;0.76;77.92;97890.06;5109397;28;20048;-65
2021/12/10 04:09:30;;;;;;;5.13;3.90;;;;;;;0.77;77.92;97883.09;5109317;28;20040;-66
2021/12/10 04:11:58;;;;;;;6.75;4.65;;;;;;;0.77;77.87;97883.09;5109619;28;20040;-66
2021/12/10 04:14:29;;;;;;;6.03;4.22;;;;;;;0.76;77.93;97884.00;5108881;28;20090;-66
2021/12/10 04:16:59;;;;;;;5.07;4.38;;;;;;;0.75;78.04;97887.53;5108931;28;20093;-66
2021/12/10 04:19:31;;;;;;;6.63;3.80;;;;;;;0.74;77.98;97883.22;5109123;28;20185;-66
2021/12/10 04:22:00;;;;;;;5.55;4.57;;;;;;;0.77;77.94;97883.94;5108334;28;20048;-65
2021/12/10 04:24:33;;;;;;;5.60;4.03;;;;;;;0.77;77.99;97889.16;5109317;28;20101;-66
2021/12/10 04:27:07;;;;;;;8.13;5.18;;;;;;;0.79;77.85;97889.97;5108970;28;20204;-66
2021/12/10 04:29:35;;;;;;;5.00;3.92;;;;;;;0.78;78.01;97887.41;5108509;28;20196;-65
2021/12/10 04:32:07;;;;;;;6.20;4.70;;;;;;;0.77;77.96;97889.16;5108865;28;20288;-66
2021/12/10 04:34:35;;;;;;;5.93;4.47;;;;;;;0.78;77.86;97893.47;5108732;28;20292;-66
2021/12/10 04:37:07;;;;;;;5.78;5.00;;;;;;;0.77;77.85;97897.00;5108843;28;20044;-66
2021/12/10 04:39:38;;;;;;;5.97;3.90;;;;;;;0.64;77.84;97861.88;5108689;28;20036;-66
2021/12/10 04:42:10;;;;;;;7.25;4.50;;;;;;;0.58;77.97;97856.91;5108586;28;20047;-66
2021/12/10 04:44:43;;;;;;;4.88;3.53;;;;;;;0.78;77.98;97890.00;5108699;28;20047;-66
2021/12/10 04:47:15;;;;;;;7.00;4.32;;;;;;;0.76;78.01;97892.69;5108627;28;20102;-66
2021/12/10 04:49:48;;;;;;;6.50;4.57;;;;;;;0.73;78.03;97890.19;5108630;28;20036;-66
2021/12/10 04:52:20;;;;;;;7.63;5.15;;;;;;;0.43;78.10;97845.31;5107623;28;20044;-65
2021/12/10 04:54:54;;;;;;;5.15;3.97;;;;;;;0.69;78.17;97890.38;5108532;28;20048;-65
2021/12/10 04:57:27;;;;;;;8.45;6.05;;;;;;;0.71;78.22;97885.94;5108470;28;20059;-66
2021/12/10 04:59:59;;;;;;;8.02;5.07;;;;;;;0.71;78.35;97886.81;5108347;28;20040;-66
2021/12/10 05:02:33;;;;;;;7.45;5.28;;;;;;;0.65;78.40;97876.59;5108426;28;20107;-66
2021/12/10 05:05:08;;;;;;;6.50;4.95;;;;;;;0.60;78.54;97887.22;5108393;28;20048;-66
2021/12/10 05:07:41;;;;;;;5.97;4.28;;;;;;;0.59;78.59;97888.13;5108348;28;20058;-66
2021/12/10 05:10:17;;;;;;;6.30;4.95;;;;;;;0.56;78.65;97879.56;5108262;28;20071;-66
2021/12/10 05:12:49;;;;;;;7.97;5.32;;;;;;;0.51;78.79;97884.97;5107884;28;20055;-66
2021/12/10 05:15:24;;;;;;;7.18;5.15;;;;;;;0.53;78.59;97883.16;5108079;28;20047;-66
2021/12/10 05:17:57;;;;;;;8.77;5.78;;;;;;;0.46;78.74;97883.44;5107767;28;20036;-66
2021/12/10 05:20:32;;;;;;;9.45;5.30;;;;;;;0.42;78.69;97867.06;5108047;28;20044;-66
2021/12/10 05:23:05;;;;;;;8.35;5.07;;;;;;;0.34;78.46;97874.31;5107979;28;20044;-66
2021/12/10 05:25:39;;;;;;;7.80;5.82;;;;;;;0.29;78.24;97873.66;5107617;28;20039;-66
2021/12/10 05:28:12;;;;;;;8.73;6.70;;;;;;;0.18;78.20;97874.03;5107841;28;20047;-67
2021/12/10 05:30:45;;;;;;;9.85;6.13;;;;;;;0.13;78.25;97875.13;5107020;28;20040;-66
2021/12/10 05:33:18;;;;;;;8.48;7.05;;;;;;;0.05;78.01;97883.22;5107689;28;20059;-66
2021/12/10 05:35:51;;;;;;;7.93;6.65;;;;;;;-0.25;78.21;97850.47;5107592;28;20048;-66
2021/12/10 05:38:23;;;;;;;7.82;5.25;;;;;;;-0.16;77.82;97890.03;5107581;28;20149;-66
2021/12/10 05:40:59;;;;;;;6.72;4.88;;;;;;;-0.28;77.98;97882.66;5107481;28;20047;-66
2021/12/10 05:43:32;;;;;;;9.18;5.07;;;;;;;-0.31;78.08;97885.38;5107592;28;20285;-66
2021/12/10 05:46:05;;;;;;;7.57;5.43;;;;;;;-0.35;77.92;97886.38;5107437;28;20058;-66
2021/12/10 05:48:38;;;;;;;7.63;5.68;;;;;;;-0.39;78.09;97879.59;5107383;28;20040;-66
2021/12/10 05:51:10;;;;;;;6.68;5.22;;;;;;;-0.66;77.50;97841.50;5107427;28;20059;-66
2021/12/10 05:53:43;;;;;;;11.15;5.75;;;;;;;-0.45;77.99;97888.47;5107105;28;20205;-66
2021/12/10 05:56:17;;;;;;;7.03;5.00;;;;;;;-0.48;77.80;97913.75;5106986;28;20040;-66
2021/12/10 05:58:50;;;;;;;8.60;6.55;;;;;;;-0.51;77.87;97883.47;5107248;28;20055;-66
2021/12/10 06:01:24;;;;;;;8.48;5.45;;;;;;;-0.61;77.37;97926.31;5107012;28;20043;-66
2021/12/10 06:03:56;;;;;;;7.03;4.72;;;;;;;-0.65;77.97;97883.09;5105755;28;20040;-66
2021/12/10 06:06:32;;;;;;;6.07;5.13;;;;;;;-0.63;77.91;97885.63;5107084;28;20047;-66
2021/12/10 06:09:07;;;;;;;8.20;5.30;;;;;;;-0.62;77.92;97882.13;5106762;28;20211;-66
2021/12/10 06:11:41;;;;;;;6.82;4.47;;;;;;;-0.62;77.78;97877.78;5107020;28;20043;-66
2021/12/10 06:14:13;;;;;;;8.20;5.40;;;;;;;-0.56;77.78;97876.72;5106345;28;20100;-67
2021/12/10 06:16:46;;;;;;;7.70;5.15;;;;;;;-0.54;77.69;97877.50;5107557;28;20048;-67
2021/12/10 06:19:18;;;;;;;10.63;5.72;;;;;;;-0.53;77.73;97877.47;5106874;28;20303;-67
2021/12/10 06:21:52;;;;;;;7.85;5.20;;;;;;;-0.50;77.66;97881.72;5106276;28;20040;-67
2021/12/10 06:24:24;;;;;;;9.90;6.50;;;;;;;-0.53;77.63;97876.59;5106668;28;20048;-66
2021/12/10 06:26:58;;;;;;;7.63;5.10;;;;;;;-0.51;77.62;97878.25;5106662;28;20059;-67
2021/12/10 06:29:31;;;;;;;13.20;6.10;;;;;;;-0.50;77.63;98102.94;5107179;28;20304;-67
2021/12/10 06:32:00;;;;;;;12.13;6.47;;;;;;;-0.52;77.58;97873.97;5106486;28;20044;-66
2021/12/10 06:34:31;;;;;;;8.60;6.05;;;;;;;-0.53;77.52;97867.06;5106611;28;20040;-67
2021/12/10 06:37:01;;;;;;;10.27;5.75;;;;;;;-1.67;77.39;97681.94;5106497;28;20047;-67
2021/12/10 06:39:31;;;;;;;10.73;6.75;;;;;;;-0.52;77.43;97875.72;5106519;28;20027;-67
2021/12/10 06:42:04;;;;;;;14.20;6.82;;;;;;;-0.57;77.38;97873.25;5106268;28;20044;-66
2021/12/10 06:44:31;;;;;;;15.57;7.65;;;;;;;-0.56;77.74;97877.56;5106012;28;20036;-67
2021/12/10 06:47:05;;;;;;;12.98;6.93;;;;;;;-0.58;77.43;97879.38;5106270;28;20048;-67
2021/12/10 06:49:37;;;;;;;9.07;6.25;;;;;;;-0.61;77.62;97873.41;5106328;28;20106;-67
2021/12/10 06:52:07;;;;;;;8.02;5.65;;;;;;;-0.59;77.59;97876.81;5106295;28;20054;-66
2021/12/10 06:54:38;;;;;;;10.75;6.85;;;;;;;-0.57;77.78;97875.00;5105065;28;20218;-67
2021/12/10 06:57:08;;;;;;;8.70;6.07;;;;;;;-0.85;77.81;97836.06;5106105;28;20040;-67
2021/12/10 06:59:37;;;;;;;9.48;6.03;;;;;;;-0.60;77.63;97872.53;5106432;28;20044;-66
2021/12/10 07:02:07;;;;;;;10.68;7.30;;;;;;;-0.60;77.89;97888.97;5105849;28;20044;-67
2021/12/10 07:04:40;;;;;;;14.88;6.47;;;;;;;-0.84;77.69;97814.38;5106128;28;20040;-67
2021/12/10 07:07:13;;;;;;;14.27;7.82;;;;;;;-3.03;77.41;97454.53;5106888;28;20048;-67
2021/12/10 07:09:45;;;;;;;10.30;7.05;;;;;;;-0.52;77.68;97854.88;5106072;28;20043;-66
2021/12/10 07:12:19;;;;;;;8.48;6.50;;;;;;;-0.54;77.64;97856.69;5105835;28;20089;-66
2021/12/10 07:14:52;;;;;;;9.68;7.55;;;;;;;-0.56;77.73;97859.34;5106374;28;20105;-67
2021/12/10 07:17:24;;;;;;;11.05;7.20;;;;;;;-0.57;77.50;97852.44;5105625;28;20044;-67
2021/12/10 07:19:56;;;;;;;8.52;6.82;;;;;;;-0.54;77.56;97857.53;5105921;28;20093;-67
2021/12/10 07:22:28;;;;;;;8.63;6.72;;;;;;;-0.53;77.46;97863.59;5105511;28;20366;-66
2021/12/10 07:25:01;;;;;;;8.30;6.45;;;;;;;-0.54;77.30;97865.34;5105856;28;20055;-67
2021/12/10 07:27:34;;;;;;;8.65;5.75;;;;;;;-0.57;77.24;97867.22;5105785;28;20082;-67
2021/12/10 07:30:08;;;;;;;20.52;6.90;;;;;;;-0.59;77.26;97862.06;5105576;28;20043;-66
2021/12/10 07:32:40;;;;;;;8.35;5.53;;;;;;;-0.58;77.49;97900.19;5105824;28;20098;-67
2021/12/10 07:35:14;;;;;;;8.23;6.43;;;;;;;-0.60;77.15;97857.75;5105747;28;20036;-67
2021/12/10 07:37:47;;;;;;;8.73;6.57;;;;;;;-0.60;77.32;97865.56;5105708;28;20097;-67
2021/12/10 07:40:22;;;;;;;10.35;7.35;;;;;;;-0.56;77.32;97854.16;5105698;28;20040;-67
2021/12/10 07:42:56;;;;;;;9.50;6.88;;;;;;;-0.99;77.08;97768.91;5105661;28;20044;-66
2021/12/10 07:45:29;;;;;;;12.23;7.43;;;;;;;-0.38;77.04;97853.50;5105489;28;20094;-67
2021/12/10 07:48:07;;;;;;;8.82;6.25;;;;;;;-0.51;76.96;97813.19;5105639;28;20288;-67
2021/12/10 07:50:44;;;;;;;8.23;7.32;;;;;;;-0.17;76.83;97856.25;5105620;28;20334;-67
2021/12/10 07:53:18;;;;;;;9.25;5.70;;;;;;;-0.01;76.68;97846.13;5105506;28;20341;-67
2021/12/10 07:55:51;;;;;;;7.38;5.72;;;;;;;0.11;76.19;97845.66;5105076;28;20268;-67
2021/12/10 07:58:24;;;;;;;8.68;6.30;;;;;;;0.27;75.82;97838.97;5105181;28;20081;-67
2021/12/10 08:00:57;;;;;;;8.68;5.95;;;;;;;0.43;75.53;97831.44;5105533;28;20056;-67
2021/12/10 08:03:29;;;;;;;7.57;6.57;;;;;;;0.61;75.14;97833.31;5104945;28;20040;-67
2021/12/10 08:06:01;;;;;;;10.40;7.18;;;;;;;0.74;74.81;97826.69;5105418;28;20055;-66
2021/12/10 08:08:34;;;;;;;9.95;6.78;;;;;;;0.89;74.48;97825.22;5104975;28;20296;-67
2021/12/10 08:11:07;;;;;;;10.27;6.88;;;;;;;0.80;74.31;97782.13;5105253;28;20048;-67
2021/12/10 08:13:41;;;;;;;9.32;6.72;;;;;;;1.19;74.03;97816.16;5104969;28;20117;-67
2021/12/10 08:16:14;;;;;;;9.93;6.82;;;;;;;1.07;73.58;97774.06;5105367;28;20288;-67
2021/12/10 08:18:46;;;;;;;11.75;6.22;;;;;;;1.43;73.32;97808.19;5105317;28;20044;-67
2021/12/10 08:21:18;;;;;;;8.57;6.75;;;;;;;1.61;73.22;97814.41;5105332;28;20288;-67
2021/12/10 08:23:53;;;;;;;9.75;7.18;;;;;;;1.71;72.74;97807.88;5104932;28;20048;-66
2021/12/10 08:26:25;;;;;;;13.25;8.48;;;;;;;1.73;71.88;97801.66;5105627;28;20341;-67
2021/12/10 08:28:59;;;;;;;10.48;7.45;;;;;;;1.79;71.53;97797.94;5108720;28;20043;-67
2021/12/10 08:31:32;;;;;;;9.35;7.43;;;;;;;2.00;72.16;97796.13;5108668;28;20043;-67
2021/12/10 08:34:04;;;;;;;9.38;6.35;;;;;;;2.12;71.17;97782.47;5108704;28;20245;-67
2021/12/10 08:36:37;;;;;;;10.32;7.10;;;;;;;2.18;71.19;97780.44;5108552;28;20081;-67
2021/12/10 08:39:11;;;;;;;8.30;6.40;;;;;;;2.31;71.13;97779.88;5108547;28;20036;-67
2021/12/10 08:41:44;;;;;;;8.93;6.80;;;;;;;2.36;70.34;97770.03;5108798;28;20048;-67
2021/12/10 08:44:18;;;;;;;8.85;6.50;;;;;;;2.44;69.83;97771.38;5108487;28;20109;-66
2021/12/10 08:46:50;;;;;;;9.98;7.22;;;;;;;2.61;69.42;97773.19;5108279;28;20052;-67
2021/12/10 08:49:22;;;;;;;10.75;7.38;;;;;;;2.73;67.76;97775.19;5108107;28;20039;-66
2021/12/10 08:51:57;;;;;;;9.10;6.20;;;;;;;2.82;67.97;97769.50;5108517;28;20085;-66
2021/12/10 08:54:30;;;;;;;;;;;;;;;2.86;65.92;97764.97;5108873;28;20113;-66
2021/12/10 08:57:05;;;;;;;9.18;5.65;;;;;;;3.03;67.10;97765.00;5108346;28;20217;-67
2021/12/10 08:59:40;;;;;;;8.75;6.03;;;;;;;2.98;66.82;97713.81;5108352;28;20060;-66
2021/12/10 09:02:10;;;;;;;7.63;5.38;;;;;;;3.38;66.29;97763.19;5108090;28;20044;-67
2021/12/10 09:04:47;;;;;;;8.35;5.55;;;;;;;3.58;66.78;97756.94;5108223;28;20276;-66
2021/12/10 09:07:19;;;;;;;6.90;5.63;;;;;;;3.67;65.51;97750.34;5108205;28;20093;-67
2021/12/10 09:09:52;;;;;;;7.38;4.03;;;;;;;3.72;64.71;97745.72;5107932;28;20040;-66
2021/12/10 09:12:26;;;;;;;6.72;4.43;;;;;;;3.78;64.55;97737.53;5107753;28;20090;-67
2021/12/10 09:15:01;;;;;;;5.47;4.47;;;;;;;3.88;64.29;97728.25;5108030;28;20089;-66
2021/12/10 09:17:35;;;;;;;5.65;4.28;;;;;;;4.03;65.18;97718.72;5107696;28;20090;-67
2021/12/10 09:20:13;;;;;;;6.63;4.40;;;;;;;4.18;63.40;97720.50;5107974;28;20101;-67
2021/12/10 09:22:45;;;;;;;5.55;3.90;;;;;;;2.59;62.52;97489.09;5107666;28;20349;-66
2021/12/10 09:25:18;;;;;;;6.97;5.03;;;;;;;4.14;62.08;97714.56;5107638;28;20044;-67
2021/12/10 09:27:50;;;;;;;7.57;5.25;;;;;;;4.24;63.51;97709.69;5107475;28;20047;-67
2021/12/10 09:30:27;;;;;;;10.35;5.32;;;;;;;4.37;63.28;97700.19;5106548;28;20246;-66
2021/12/10 09:32:59;;;;;;;6.70;5.18;;;;;;;4.47;62.07;97693.50;5107345;28;20044;-67
2021/12/10 09:35:33;;;;;;;9.68;6.55;;;;;;;4.56;62.93;97684.25;5106840;28;20304;-66
2021/12/10 09:38:07;;;;;;;6.82;5.25;;;;;;;4.62;63.19;97683.06;5106845;28;20250;-66
2021/12/10 09:40:42;;;;;;;6.45;4.47;;;;;;;4.79;62.24;97675.06;5107333;28;20292;-66
2021/12/10 09:43:16;;;;;;;8.20;5.38;;;;;;;5.00;62.00;97672.97;5106422;28;20048;-66
2021/12/10 09:45:52;;;;;;;6.47;5.73;;;;;;;5.06;60.39;97670.00;5107322;28;20044;-67
2021/12/10 09:48:26;;;;;;;6.82;5.55;;;;;;;5.10;60.75;97661.00;5107079;28;20040;-67
2021/12/10 09:51:01;;;;;;;8.88;5.10;;;;;;;5.12;60.92;97682.75;5107353;28;20086;-67
2021/12/10 09:53:35;;;;;;;10.13;5.93;;;;;;;4.90;61.03;97614.94;5107386;28;20093;-67
2021/12/10 09:56:08;;;;;;;8.52;5.82;;;;;;;5.06;59.91;97647.22;5107281;28;20280;-67
2021/12/10 09:58:41;;;;;;;7.55;6.13;;;;;;;3.74;59.76;97453.03;5107586;28;20338;-66
2021/12/10 10:01:20;;;;;;;10.02;5.97;;;;;;;5.01;60.19;97633.50;5107186;28;20086;-66
2021/12/10 10:04:00;;;;;;;9.75;7.30;;;;;;;5.15;61.79;97618.69;5107012;28;20044;-66
2021/12/10 10:06:35;;;;;;;9.52;6.35;;;;;;;5.33;59.66;97614.94;5106858;28;20189;-66
2021/12/10 10:09:10;;;;;;;8.57;6.68;;;;;;;5.26;59.14;97611.00;5106909;28;20081;-67
2021/12/10 10:11:44;;;;;;;10.60;7.25;;;;;;;5.34;60.47;97609.59;5106500;28;20044;-67
2021/12/10 10:14:16;;;;;;;8.77;6.35;;;;;;;4.82;58.64;97555.00;5106362;28;20109;-67
2021/12/10 10:16:51;;;;;;;9.93;7.47;;;;;;;4.98;57.57;97604.81;5106306;28;20085;-67
2021/12/10 10:19:25;;;;;;;8.23;6.35;;;;;;;4.81;59.32;97607.56;5106437;28;20081;-67
2021/12/10 10:21:58;;;;;;;7.65;5.72;;;;;;;4.74;58.63;97608.88;5106769;28;20288;-67
2021/12/10 10:24:31;;;;;;;10.88;7.57;;;;;;;4.47;58.78;97574.63;5106639;28;20063;-67
2021/12/10 10:27:05;;;;;;;10.20;7.93;;;;;;;4.44;58.81;97601.03;5106714;28;20089;-67
2021/12/10 10:29:42;;;;;;;8.00;7.13;;;;;;;4.26;58.94;97602.09;5106454;28;20040;-66
2021/12/10 10:32:19;;;;;;;11.00;7.45;;;;;;;4.07;59.20;97605.72;5106505;28;20089;-66
2021/12/10 10:34:55;;;;;;;11.88;8.07;;;;;;;3.97;61.16;97606.34;5106523;28;20051;-66
2021/12/10 10:37:27;;;;;;;9.75;7.55;;;;;;;3.93;60.53;97602.19;5106367;28;20349;-66
2021/12/10 10:40:00;;;;;;;11.05;8.63;;;;;;;4.09;61.64;97600.41;5106498;28;20082;-66
2021/12/10 10:42:33;;;;;;;12.77;8.88;;;;;;;4.08;60.36;97596.94;5106165;28;20264;-67
2021/12/10 10:45:09;;;;;;;13.55;9.32;;;;;;;4.04;60.06;97599.81;5106275;28;20043;-66
2021/12/10 10:47:43;;;;;;;14.85;10.27;;;;;;;4.03;60.21;97591.09;5106933;28;20101;-67
2021/12/10 10:50:18;;;;;;;14.13;10.02;;;;;;;3.98;59.86;97608.03;5105433;28;20097;-67
2021/12/10 10:52:55;;;;;;;14.68;10.43;;;;;;;3.60;59.41;97604.91;5105997;28;20077;-67
2021/12/10 10:55:30;;;;;;;15.32;10.85;;;;;;;3.37;60.97;97606.16;5105985;28;20189;-66
2021/12/10 10:58:06;;;;;;;14.93;11.30;;;;;;;3.03;61.16;97597.47;5106265;28;20085;-66
2021/12/10 11:00:50;;;;;;;15.73;11.00;;;;;;;2.85;61.92;97598.44;5106092;28;20097;-66
2021/12/10 11:03:35;;;;;;;17.15;12.48;;;;;;;3.11;62.27;97590.06;5106030;28;20238;-66
2021/12/10 11:06:10;;;;;;;13.90;9.88;;;;;;;3.05;62.48;97547.69;5106037;28;20097;-66
2021/12/10 11:08:46;;;;;;;16.40;11.52;;;;;;;3.35;61.45;97592.31;5106429;28;20055;-66
2021/12/10 11:11:22;;;;;;;13.52;9.70;;;;;;;3.60;61.91;97589.19;5105906;28;20334;-66
2021/12/10 11:14:02;;;;;;;17.67;11.45;;;;;;;3.63;61.16;97581.16;5105339;28;20117;-66
2021/12/10 11:16:37;;;;;;;16.50;10.60;;;;;;;3.76;61.75;97588.25;5105740;28;20288;-67
2021/12/10 11:19:16;;;;;;;14.60;9.98;;;;;;;3.86;60.73;97580.72;5105853;28;20043;-66
2021/12/10 11:21:52;;;;;;;16.27;11.07;;;;;;;3.82;61.92;97569.56;5105788;28;20048;-66
2021/12/10 11:24:27;;;;;;;16.30;10.82;;;;;;;3.23;60.86;97536.22;5105762;28;20097;-66
2021/12/10 11:27:03;;;;;;;14.48;10.23;;;;;;;3.56;60.21;97579.81;5105455;28;20040;-67
2021/12/10 11:29:45;;;;;;;14.88;10.98;;;;;;;3.57;60.28;97560.53;5105765;28;20048;-67
2021/12/10 11:32:20;;;;;;;17.02;11.75;;;;;;;3.36;61.04;97560.78;5105647;28;20081;-67
2021/12/10 11:34:57;;;;;;;17.38;11.02;;;;;;;3.08;61.75;97516.09;5105549;28;20297;-67
2021/12/10 11:37:43;;;;;;;17.58;11.35;;;;;;;3.43;61.17;97559.53;5105405;28;20043;-67
2021/12/10 11:40:39;;;;;;;17.67;10.65;;;;;;;3.30;61.39;97563.75;5105334;28;20089;-67
2021/12/10 11:46:28;;;;;;;19.60;12.93;;;;;;;2.67;62.95;97516.53;5096780;28;20048;-67
2021/12/10 11:49:11;;;;;;;19.55;14.30;;;;;;;2.76;63.55;97552.69;5105426;28;20040;-67
2021/12/10 11:51:47;;;;;;;21.77;14.30;;;;;;;2.83;64.03;97551.44;5105443;28;20089;-67
2021/12/10 11:54:25;;;;;;;20.52;14.15;;;;;;;2.71;63.95;97546.84;5105432;28;20109;-67
2021/12/10 11:57:01;;;;;;;20.65;13.60;;;;;;;2.51;64.46;97568.78;5105307;28;20294;-67
2021/12/10 11:59:36;;;;;;;19.90;13.13;;;;;;;2.34;65.52;97567.97;5105501;28;20383;-67
2021/12/10 12:02:08;;;;;;;19.58;12.57;;;;;;;2.09;65.33;97570.94;5106438;28;20091;-67
2021/12/10 12:04:42;;;;;;;18.35;12.43;;;;;;;1.80;66.21;97569.75;5109414;28;20075;-67
2021/12/10 12:07:20;;;;;;;18.75;12.23;;;;;;;1.51;66.67;97569.34;5109079;28;20087;-67
2021/12/10 12:09:56;;;;;;;20.95;13.40;;;;;;;1.28;68.19;97566.97;5109307;28;20048;-67
2021/12/10 12:12:36;;;;;;;22.20;15.02;;;;;;;1.21;68.44;97558.56;5109694;28;20048;-67
2021/12/10 12:15:17;;;;;;;18.55;12.38;;;;;;;1.07;68.66;97542.72;5109132;28;20044;-67
2021/12/10 12:17:51;;;;;;;22.15;13.98;;;;;;;0.89;69.38;97536.56;5109104;28;20048;-67